createdAt,value
2023-02-14T00:01:10.690Z,100312.31
2023-02-14T00:03:37.499Z,100308.75
2023-02-14T00:06:13.055Z,100305.44
2023-02-14T00:08:41.089Z,100299.31
2023-02-14T00:11:09.848Z,100300.25
2023-02-14T00:13:36.369Z,100299.47
2023-02-14T00:16:03.494Z,100298.38
2023-02-14T00:18:48.819Z,100299.16
2023-02-14T00:21:15.311Z,100300.13
2023-02-14T00:23:41.808Z,100295.19
2023-02-14T00:26:14.896Z,100295.34
2023-02-14T00:28:42.815Z,100286.84
2023-02-14T00:31:09.619Z,100286.06
2023-02-14T00:33:36.611Z,100287.47
2023-02-14T00:36:07.376Z,100283.44
2023-02-14T00:38:34.741Z,100287.31
2023-02-14T00:41:02.096Z,100286.06
2023-02-14T00:43:28.984Z,100287.75
2023-02-14T00:45:57.017Z,100290.91
2023-02-14T00:48:23.676Z,100297.97
2023-02-14T00:50:50.163Z,100294.78
2023-02-14T00:53:16.642Z,100287.50
2023-02-14T00:55:46.312Z,100290.00
2023-02-14T00:58:14.562Z,100288.00
2023-02-14T01:00:41.130Z,100292.53
2023-02-14T01:03:07.641Z,100291.06
2023-02-14T01:05:34.502Z,100293.00
2023-02-14T01:08:03.938Z,100295.69
2023-02-14T01:10:30.538Z,100300.56
2023-02-14T01:12:58.620Z,100301.03
2023-02-14T01:15:25.115Z,100303.56
2023-02-14T01:17:51.602Z,100302.25
2023-02-14T01:20:19.526Z,100307.03
2023-02-14T01:22:45.998Z,100306.31
2023-02-14T01:25:13.207Z,100307.56
2023-02-14T01:27:39.763Z,100314.25
2023-02-14T01:30:07.072Z,100313.69
2023-02-14T01:32:33.782Z,100306.59
2023-02-14T01:35:00.315Z,100302.97
2023-02-14T01:37:27.034Z,100294.25
2023-02-14T01:39:53.555Z,100295.72
2023-02-14T01:42:20.087Z,100296.41
2023-02-14T01:44:46.478Z,100289.59
2023-02-14T01:47:13.813Z,100291.44
2023-02-14T01:49:46.072Z,100289.22
2023-02-14T01:52:19.551Z,100294.66
2023-02-14T01:55:08.401Z,100297.47
2023-02-14T01:57:41.766Z,100290.97
2023-02-14T02:00:27.824Z,100290.78
2023-02-14T02:02:56.910Z,100288.00
2023-02-14T02:05:24.047Z,100291.03
2023-02-14T02:07:52.654Z,100287.72
2023-02-14T02:10:19.437Z,100295.78
2023-02-14T02:12:47.873Z,100289.00
2023-02-14T02:15:14.517Z,100283.91
2023-02-14T02:18:15.622Z,100284.03
2023-02-14T02:21:12.903Z,100283.38
2023-02-14T02:24:10.115Z,100279.31
2023-02-14T02:27:08.485Z,100278.00
2023-02-14T02:30:06.353Z,100274.69
2023-02-14T02:32:59.418Z,100274.19
2023-02-14T02:35:39.304Z,100267.81
2023-02-14T02:38:45.060Z,100273.28
2023-02-14T02:41:37.921Z,100276.88
2023-02-14T02:44:07.549Z,100276.34
2023-02-14T02:46:49.652Z,100271.69
2023-02-14T02:50:12.502Z,100270.63
2023-02-14T02:53:03.491Z,100278.25
2023-02-14T02:55:58.043Z,100278.41
2023-02-14T02:58:31.412Z,100280.09
2023-02-14T03:01:02.057Z,100281.22
2023-02-14T03:03:57.996Z,100282.69
2023-02-14T03:06:24.514Z,100276.66
2023-02-14T03:08:50.979Z,100277.81
2023-02-14T03:11:18.125Z,100268.03
2023-02-14T03:14:16.325Z,100278.72
2023-02-14T03:17:08.191Z,100274.69
2023-02-14T03:19:57.678Z,100274.75
2023-02-14T03:22:45.482Z,100274.00
2023-02-14T03:25:20.956Z,100271.66
2023-02-14T03:27:58.211Z,100262.63
2023-02-14T03:30:48.543Z,100266.00
2023-02-14T03:33:30.413Z,100272.63
2023-02-14T03:35:56.867Z,100270.13
2023-02-14T03:38:49.638Z,100272.53
2023-02-14T03:41:23.005Z,100283.50
2023-02-14T03:43:53.363Z,100282.78
2023-02-14T03:46:23.985Z,100284.69
2023-02-14T03:48:53.644Z,100288.66
2023-02-14T03:51:23.205Z,100288.38
2023-02-14T03:53:54.621Z,100288.22
2023-02-14T03:56:38.489Z,100286.78
2023-02-14T03:59:14.916Z,100280.31
2023-02-14T04:01:55.557Z,100281.81
2023-02-14T04:04:26.951Z,100284.75
2023-02-14T04:06:53.494Z,100287.00
2023-02-14T04:09:19.958Z,100292.44
2023-02-14T04:11:50.238Z,100285.72
2023-02-14T04:14:17.722Z,100288.91
2023-02-14T04:17:03.008Z,100288.03
2023-02-14T04:19:29.496Z,100290.88
2023-02-14T04:21:55.939Z,100288.63
2023-02-14T04:24:22.401Z,100288.75
2023-02-14T04:27:10.003Z,100282.75
2023-02-14T04:29:45.793Z,100286.16
2023-02-14T04:32:15.203Z,100284.50
2023-02-14T04:34:42.280Z,100291.13
2023-02-14T04:37:09.149Z,100290.34
2023-02-14T04:39:35.969Z,100287.94
2023-02-14T04:42:02.989Z,100289.00
2023-02-14T04:44:29.547Z,100275.47
2023-02-14T04:46:56.041Z,100279.16
2023-02-14T04:49:22.782Z,100289.25
2023-02-14T04:51:49.240Z,100290.84
2023-02-14T04:54:15.877Z,100284.88
2023-02-14T04:56:42.438Z,100286.50
2023-02-14T04:59:09.284Z,100291.47
2023-02-14T05:01:36.254Z,100284.72
2023-02-14T05:04:03.232Z,100271.47
2023-02-14T05:06:29.771Z,100276.78
2023-02-14T05:08:57.280Z,100277.78
2023-02-14T05:11:23.835Z,100272.78
2023-02-14T05:13:50.645Z,100269.81
2023-02-14T05:16:17.149Z,100270.53
2023-02-14T05:18:43.730Z,100269.59
2023-02-14T05:21:10.770Z,100269.06
2023-02-14T05:23:37.470Z,100263.69
2023-02-14T05:26:04.307Z,100264.88
2023-02-14T05:28:30.833Z,100271.59
2023-02-14T05:30:58.862Z,100271.56
2023-02-14T05:33:25.659Z,100276.25
2023-02-14T05:35:52.183Z,100272.97
2023-02-14T05:38:19.155Z,100269.59
2023-02-14T05:40:45.642Z,100268.34
2023-02-14T05:43:12.348Z,100273.28
2023-02-14T05:45:38.901Z,100275.81
2023-02-14T05:48:06.261Z,100275.75
2023-02-14T05:50:32.747Z,100270.16
2023-02-14T05:52:59.179Z,100273.44
2023-02-14T05:55:26.257Z,100272.94
2023-02-14T05:57:52.722Z,100280.44
2023-02-14T06:00:19.900Z,100286.53
2023-02-14T06:02:46.642Z,100285.22
2023-02-14T06:05:14.811Z,100288.53
2023-02-14T06:07:43.153Z,100287.47
2023-02-14T06:10:10.078Z,100289.31
2023-02-14T06:12:36.584Z,100294.16
2023-02-14T06:15:03.153Z,100294.50
2023-02-14T06:17:29.583Z,100285.22
2023-02-14T06:19:56.033Z,100288.09
2023-02-14T06:22:22.487Z,100293.19
2023-02-14T06:24:48.958Z,100293.41
2023-02-14T06:27:15.453Z,100297.16
2023-02-14T06:29:42.444Z,100298.94
2023-02-14T06:32:09.181Z,100304.63
2023-02-14T06:34:36.073Z,100298.69
2023-02-14T06:37:02.521Z,100303.16
2023-02-14T06:39:28.972Z,100309.03
2023-02-14T06:41:55.433Z,100306.56
2023-02-14T06:44:22.008Z,100305.53
2023-02-14T06:46:48.734Z,100299.31
2023-02-14T06:49:15.208Z,100308.03
2023-02-14T06:51:41.717Z,100313.88
2023-02-14T06:54:08.184Z,100307.25
2023-02-14T06:56:34.777Z,100304.03
2023-02-14T06:59:01.568Z,100309.31
2023-02-14T07:01:28.305Z,100314.16
2023-02-14T07:03:55.200Z,100307.38
2023-02-14T07:06:21.659Z,100308.09
2023-02-14T07:08:48.201Z,100303.50
2023-02-14T07:11:14.721Z,100301.81
2023-02-14T07:13:41.205Z,100306.22
2023-02-14T07:16:07.742Z,100305.81
2023-02-14T07:18:34.240Z,100301.06
2023-02-14T07:21:01.095Z,100301.41
2023-02-14T07:23:27.851Z,100296.25
2023-02-14T07:25:55.880Z,100312.94
2023-02-14T07:28:22.369Z,100305.47
2023-02-14T07:30:48.976Z,100302.78
2023-02-14T07:33:15.588Z,100302.31
2023-02-14T07:35:42.033Z,100296.06
2023-02-14T07:38:08.687Z,100303.91
2023-02-14T07:40:35.206Z,100297.06
2023-02-14T07:43:01.632Z,100295.69
2023-02-14T07:45:28.104Z,100292.25
2023-02-14T07:47:55.482Z,100293.22
2023-02-14T07:50:23.447Z,100288.47
2023-02-14T07:52:50.268Z,100287.34
2023-02-14T07:55:16.859Z,100284.56
2023-02-14T07:57:43.402Z,100283.88
2023-02-14T08:00:10.259Z,100293.13
2023-02-14T08:02:39.432Z,100290.72
2023-02-14T08:05:06.311Z,100291.03
2023-02-14T08:07:32.898Z,100290.53
2023-02-14T08:09:59.351Z,100291.53
2023-02-14T08:12:44.923Z,100291.16
2023-02-14T08:15:29.888Z,100291.66
2023-02-14T08:17:56.985Z,100295.75
2023-02-14T08:20:23.439Z,100293.53
2023-02-14T08:22:49.937Z,100298.91
2023-02-14T08:25:16.465Z,100292.59
2023-02-14T08:27:42.914Z,100279.88
2023-02-14T08:30:09.718Z,100278.78
2023-02-14T08:32:36.579Z,100282.69
2023-02-14T08:35:03.202Z,100289.59
2023-02-14T08:37:29.755Z,100284.31
2023-02-14T08:39:56.221Z,100291.81
2023-02-14T08:42:22.683Z,100289.72
2023-02-14T08:44:49.126Z,100282.91
2023-02-14T08:47:15.644Z,100286.91
2023-02-14T08:49:42.149Z,100283.84
2023-02-14T08:52:08.653Z,100275.97
2023-02-14T08:54:35.101Z,100276.94
2023-02-14T08:57:03.443Z,100275.66
2023-02-14T08:59:29.969Z,100272.78
2023-02-14T09:01:56.478Z,100281.47
2023-02-14T09:04:23.058Z,100280.97
2023-02-14T09:06:49.574Z,100284.97
2023-02-14T09:09:17.491Z,100279.78
2023-02-14T09:11:43.985Z,100279.69
2023-02-14T09:14:10.583Z,100272.72
2023-02-14T09:16:37.221Z,100280.41
2023-02-14T09:19:03.907Z,100278.75
2023-02-14T09:21:30.599Z,100281.97
2023-02-14T09:23:57.524Z,100276.25
2023-02-14T09:26:24.249Z,100279.88
2023-02-14T09:28:50.755Z,100275.16
2023-02-14T09:31:23.026Z,100278.22
2023-02-14T09:33:50.398Z,100272.47
2023-02-14T09:36:17.268Z,100274.72
2023-02-14T09:38:43.761Z,100272.31
2023-02-14T09:41:30.916Z,100276.78
2023-02-14T09:44:16.401Z,100271.72
2023-02-14T09:46:50.403Z,100277.94
2023-02-14T09:49:22.443Z,100273.75
2023-02-14T09:51:52.249Z,100264.66
2023-02-14T09:54:27.382Z,100261.91
2023-02-14T09:57:13.908Z,100256.63
2023-02-14T09:59:51.774Z,100259.63
2023-02-14T10:02:56.255Z,100258.03
2023-02-14T10:05:35.798Z,100251.63
2023-02-14T10:08:08.304Z,100249.97
2023-02-14T10:10:43.307Z,100264.84
2023-02-14T10:13:39.256Z,100259.53
2023-02-14T10:16:05.883Z,100256.16
2023-02-14T10:18:43.832Z,100252.44
2023-02-14T10:21:27.415Z,100258.25
2023-02-14T10:24:17.864Z,100251.22
2023-02-14T10:26:48.198Z,100245.50
2023-02-14T10:29:17.672Z,100241.63
2023-02-14T10:31:57.982Z,100242.56
2023-02-14T10:34:47.819Z,100237.56
2023-02-14T10:37:26.558Z,100243.44
2023-02-14T10:40:34.601Z,100244.44
2023-02-14T10:43:06.473Z,100236.03
2023-02-14T10:46:20.966Z,100233.88
2023-02-14T10:49:22.769Z,100238.53
2023-02-14T10:52:00.661Z,100238.47
2023-02-14T10:54:57.999Z,100236.91
2023-02-14T10:57:47.666Z,100231.06
2023-02-14T11:00:17.352Z,100227.53
2023-02-14T11:02:47.406Z,100230.25
2023-02-14T11:05:30.979Z,100228.72
2023-02-14T11:07:59.070Z,100226.97
2023-02-14T11:10:29.981Z,100219.78
2023-02-14T11:12:56.768Z,100211.78
2023-02-14T11:15:31.396Z,100218.25
2023-02-14T11:18:21.895Z,100217.44
2023-02-14T11:21:04.538Z,100210.78
2023-02-14T11:23:42.094Z,100209.28
2023-02-14T11:26:15.410Z,100206.47
2023-02-14T11:29:00.295Z,100197.69
2023-02-14T11:31:38.588Z,100191.69
2023-02-14T11:34:31.053Z,100194.97
2023-02-14T11:36:57.788Z,100195.50
2023-02-14T11:39:34.737Z,100189.88
2023-02-14T11:42:04.578Z,100174.44
2023-02-14T11:44:34.215Z,100185.97
2023-02-14T11:47:29.035Z,100183.44
2023-02-14T11:50:10.943Z,100187.41
2023-02-14T11:52:50.848Z,100169.06
2023-02-14T11:55:33.699Z,100168.09
2023-02-14T11:58:03.344Z,100166.25
2023-02-14T12:00:31.435Z,100160.75
2023-02-14T12:03:01.536Z,100159.25
2023-02-14T12:05:31.310Z,100155.53
2023-02-14T12:08:00.524Z,100151.38
2023-02-14T12:10:30.940Z,100148.88
2023-02-14T12:13:19.760Z,100152.22
2023-02-14T12:15:46.207Z,100155.75
2023-02-14T12:18:42.536Z,100150.88
2023-02-14T12:21:12.596Z,100149.25
2023-02-14T12:23:47.132Z,100138.09
2023-02-14T12:26:36.406Z,100137.84
2023-02-14T12:29:27.845Z,100134.84
2023-02-14T12:31:59.121Z,100128.19
2023-02-14T12:34:25.767Z,100137.72
2023-02-14T12:37:07.038Z,100131.56
2023-02-14T12:40:09.201Z,100124.47
2023-02-14T12:43:03.473Z,100119.16
2023-02-14T12:45:50.570Z,100113.69
2023-02-14T12:48:47.236Z,100114.09
2023-02-14T12:51:31.890Z,100103.22
2023-02-14T12:54:22.510Z,100103.78
2023-02-14T12:57:17.708Z,100101.03
2023-02-14T12:59:49.838Z,100094.03
2023-02-14T13:02:35.187Z,100092.28
2023-02-14T13:05:14.673Z,100092.44
2023-02-14T13:07:47.282Z,100091.41
2023-02-14T13:10:35.240Z,100085.78
2023-02-14T13:13:14.628Z,100078.81
2023-02-14T13:16:30.548Z,100068.34
2023-02-14T13:19:16.323Z,100062.69
2023-02-14T13:21:44.300Z,100060.03
2023-02-14T13:24:27.450Z,100068.38
2023-02-14T13:26:59.791Z,100060.78
2023-02-14T13:29:31.826Z,100055.34
2023-02-14T13:32:02.266Z,100056.88
2023-02-14T13:34:34.731Z,100057.22
2023-02-14T13:37:18.410Z,100049.28
2023-02-14T13:39:54.136Z,100048.75
2023-02-14T13:42:46.678Z,100050.22
2023-02-14T13:45:40.281Z,100052.69
2023-02-14T13:48:26.750Z,100054.75
2023-02-14T13:50:55.098Z,100053.66
2023-02-14T13:53:43.673Z,100051.41
2023-02-14T13:56:13.298Z,100046.16
2023-02-14T13:58:52.896Z,100051.31
2023-02-14T14:01:47.997Z,100054.19
2023-02-14T14:04:26.451Z,100045.97
2023-02-14T14:07:04.948Z,100046.84
2023-02-14T14:09:47.540Z,100046.81
2023-02-14T14:12:26.481Z,100047.88
2023-02-14T14:15:05.427Z,100049.22
2023-02-14T14:17:42.786Z,100044.59
2023-02-14T14:20:43.980Z,100042.44
2023-02-14T14:23:32.419Z,100046.56
2023-02-14T14:26:00.210Z,100047.16
2023-02-14T14:28:30.716Z,100044.69
2023-02-14T14:30:57.527Z,100039.28
2023-02-14T14:33:33.755Z,100042.50
2023-02-14T14:36:11.145Z,100046.91
2023-02-14T14:38:49.743Z,100042.09
2023-02-14T14:41:17.533Z,100045.88
2023-02-14T14:43:44.131Z,100039.97
2023-02-14T14:46:13.005Z,100038.38
2023-02-14T14:48:47.030Z,100040.97
2023-02-14T14:51:29.694Z,100037.13
2023-02-14T14:53:59.878Z,100047.75
2023-02-14T14:56:31.659Z,100039.47
2023-02-14T14:59:15.484Z,100041.19
2023-02-14T15:01:46.820Z,100034.88
2023-02-14T15:04:24.860Z,100040.50
2023-02-14T15:06:51.759Z,100038.66
2023-02-14T15:09:31.598Z,100042.16
2023-02-14T15:12:21.349Z,100036.66
2023-02-14T15:14:54.593Z,100041.28
2023-02-14T15:17:27.081Z,100037.31
2023-02-14T15:20:00.996Z,100032.78
2023-02-14T15:22:38.117Z,100039.00
2023-02-14T15:25:14.223Z,100028.25
2023-02-14T15:27:41.563Z,100032.19
2023-02-14T15:30:26.555Z,100031.19
2023-02-14T15:32:54.179Z,100034.38
2023-02-14T15:35:30.637Z,100025.78
2023-02-14T15:38:01.729Z,100028.91
2023-02-14T15:40:33.535Z,100022.88
2023-02-14T15:43:31.929Z,100022.25
2023-02-14T15:46:33.901Z,100027.06
2023-02-14T15:49:05.279Z,100022.59
2023-02-14T15:51:36.299Z,100017.75
2023-02-14T15:54:06.124Z,100021.97
2023-02-14T15:56:42.237Z,100018.59
2023-02-14T15:59:26.218Z,100026.81
2023-02-14T16:02:00.296Z,100030.34
2023-02-14T16:04:30.759Z,100036.41
2023-02-14T16:07:03.377Z,100027.97
2023-02-14T16:09:31.856Z,100023.88
2023-02-14T16:11:58.377Z,100026.31
2023-02-14T16:14:36.925Z,100025.22
2023-02-14T16:17:31.627Z,100019.72
2023-02-14T16:19:58.504Z,100025.56
2023-02-14T16:22:32.113Z,100027.31
2023-02-14T16:24:59.287Z,100026.38
2023-02-14T16:27:25.850Z,100025.47
2023-02-14T16:29:52.555Z,100022.09
2023-02-14T16:32:22.276Z,100035.13
2023-02-14T16:34:49.557Z,100033.03
2023-02-14T16:37:30.145Z,100032.09
2023-02-14T16:39:57.740Z,100037.47
2023-02-14T16:42:24.830Z,100037.94
2023-02-14T16:44:51.577Z,100038.03
2023-02-14T16:47:19.788Z,100037.38
2023-02-14T16:49:46.724Z,100040.88
2023-02-14T16:52:17.091Z,100043.88
2023-02-14T16:54:43.830Z,100037.28
2023-02-14T16:57:19.802Z,100050.69
2023-02-14T16:59:46.799Z,100045.25
2023-02-14T17:02:13.922Z,100050.16
2023-02-14T17:04:40.367Z,100053.09
2023-02-14T17:07:07.586Z,100055.97
2023-02-14T17:09:39.061Z,100048.53
2023-02-14T17:12:13.237Z,100061.19
2023-02-14T17:14:41.898Z,100058.03
2023-02-14T17:17:09.770Z,100059.22
2023-02-14T17:19:36.688Z,100069.03
2023-02-14T17:22:06.549Z,100064.38
2023-02-14T17:24:33.256Z,100068.41
2023-02-14T17:26:59.790Z,100070.56
2023-02-14T17:29:26.227Z,100066.06
2023-02-14T17:31:52.741Z,100069.03
2023-02-14T17:34:19.531Z,100079.69
2023-02-14T17:36:46.428Z,100074.41
2023-02-14T17:39:12.938Z,100079.44
2023-02-14T17:41:39.458Z,100074.22
2023-02-14T17:44:07.139Z,100066.69
2023-02-14T17:46:33.627Z,100066.66
2023-02-14T17:49:02.558Z,100069.97
2023-02-14T17:51:29.445Z,100072.53
2023-02-14T17:53:57.455Z,100059.19
2023-02-14T17:56:25.982Z,100059.94
2023-02-14T17:58:55.123Z,100059.81
2023-02-14T18:01:24.499Z,100057.31
2023-02-14T18:03:54.428Z,100058.28
2023-02-14T18:06:21.666Z,100053.91
2023-02-14T18:08:50.486Z,100050.97
2023-02-14T18:11:18.818Z,100047.56
2023-02-14T18:13:45.535Z,100054.44
2023-02-14T18:16:15.541Z,100055.00
2023-02-14T18:18:42.060Z,100064.94
2023-02-14T18:21:10.709Z,100052.88
2023-02-14T18:23:37.777Z,100059.91
2023-02-14T18:26:10.970Z,100059.75
2023-02-14T18:28:37.984Z,100055.19
2023-02-14T18:31:13.342Z,100056.69
2023-02-14T18:33:40.295Z,100053.31
2023-02-14T18:36:11.741Z,100052.22
2023-02-14T18:38:39.617Z,100051.50
2023-02-14T18:41:07.726Z,100051.13
2023-02-14T18:43:35.319Z,100045.09
2023-02-14T18:46:03.854Z,100045.16
2023-02-14T18:48:31.720Z,100038.75
2023-02-14T18:51:23.466Z,100034.50
2023-02-14T18:53:54.453Z,100036.91
2023-02-14T18:56:23.931Z,100036.34
2023-02-14T18:58:54.417Z,100032.91
2023-02-14T19:01:23.704Z,100024.75
2023-02-14T19:03:52.752Z,100031.16
2023-02-14T19:06:19.710Z,100033.47
2023-02-14T19:08:46.549Z,100037.00
2023-02-14T19:11:15.545Z,100028.75
2023-02-14T19:13:51.004Z,100026.41
2023-02-14T19:16:26.093Z,100027.13
2023-02-14T19:18:53.745Z,100028.94
2023-02-14T19:21:31.838Z,100028.28
2023-02-14T19:23:58.704Z,100006.44
2023-02-14T19:26:32.691Z,100014.06
2023-02-14T19:29:01.800Z,100014.69
2023-02-14T19:31:28.788Z,100014.00
2023-02-14T19:33:55.351Z,100008.50
2023-02-14T19:36:23.096Z,100000.25
2023-02-14T19:38:51.744Z,100004.03
2023-02-14T19:41:25.930Z,100008.31
2023-02-14T19:43:52.688Z,100001.19
2023-02-14T19:46:20.785Z,99999.72
2023-02-14T19:48:48.639Z,99995.78
2023-02-14T19:51:27.714Z,99992.91
2023-02-14T19:53:55.703Z,99992.06
2023-02-14T19:56:25.760Z,99987.53
2023-02-14T19:58:53.203Z,99983.81
2023-02-14T20:01:31.530Z,99982.28
2023-02-14T20:03:57.958Z,99980.03
2023-02-14T20:06:26.059Z,99979.78
2023-02-14T20:08:52.647Z,99974.66
2023-02-14T20:11:24.912Z,99976.50
2023-02-14T20:13:52.764Z,99980.44
2023-02-14T20:16:19.197Z,99976.97
2023-02-14T20:18:45.628Z,99979.03
2023-02-14T20:21:18.149Z,99979.69
2023-02-14T20:23:45.734Z,99970.75
2023-02-14T20:26:15.032Z,99965.50
2023-02-14T20:28:43.126Z,99964.94
2023-02-14T20:31:12.058Z,99965.22
2023-02-14T20:33:38.949Z,99962.97
2023-02-14T20:36:06.614Z,99967.25
2023-02-14T20:38:34.194Z,99967.22
2023-02-14T20:41:09.392Z,99966.03
2023-02-14T20:43:36.490Z,99963.53
2023-02-14T20:46:05.620Z,99969.56
2023-02-14T20:48:33.320Z,99964.28
2023-02-14T20:51:12.877Z,99962.25
2023-02-14T20:53:40.212Z,99961.38
2023-02-14T20:56:07.413Z,99962.56
2023-02-14T20:58:35.411Z,99957.75
2023-02-14T21:01:07.140Z,99955.56
2023-02-14T21:03:35.800Z,99952.88
2023-02-14T21:06:03.941Z,99955.47
2023-02-14T21:08:30.677Z,99947.88
2023-02-14T21:10:57.230Z,99949.44
2023-02-14T21:13:23.689Z,99945.16
2023-02-14T21:15:50.146Z,99944.59
2023-02-14T21:18:17.082Z,99947.88
2023-02-14T21:20:43.557Z,99941.00
2023-02-14T21:23:09.991Z,99934.44
2023-02-14T21:25:36.426Z,99929.31
2023-02-14T21:28:02.842Z,99924.97
2023-02-14T21:30:31.003Z,99933.22
2023-02-14T21:32:57.601Z,99939.03
2023-02-14T21:35:24.750Z,99935.16
2023-02-14T21:37:51.176Z,99933.66
2023-02-14T21:40:17.788Z,99933.22
2023-02-14T21:42:44.555Z,99926.06
2023-02-14T21:45:31.531Z,99923.28
2023-02-14T21:48:16.947Z,99912.44
2023-02-14T21:50:43.374Z,99911.50
2023-02-14T21:53:09.880Z,99911.53
2023-02-14T21:55:38.369Z,99916.06
2023-02-14T21:58:04.810Z,99918.81
2023-02-14T22:00:31.287Z,99918.84
2023-02-14T22:02:57.798Z,99908.81
2023-02-14T22:05:25.242Z,99904.75
2023-02-14T22:07:51.651Z,99909.00
2023-02-14T22:10:18.160Z,99908.75
2023-02-14T22:12:44.574Z,99900.47
2023-02-14T22:15:11.214Z,99904.25
2023-02-14T22:17:38.348Z,99909.66
2023-02-14T22:20:06.185Z,99905.88
2023-02-14T22:22:34.502Z,99906.25
2023-02-14T22:25:00.948Z,99899.34
2023-02-14T22:27:27.412Z,99899.56
2023-02-14T22:29:53.835Z,99895.94
2023-02-14T22:32:20.348Z,99899.19
2023-02-14T22:34:46.948Z,99901.13
2023-02-14T22:37:13.352Z,99908.63
2023-02-14T22:39:39.785Z,99904.00
2023-02-14T22:42:06.856Z,99899.47
2023-02-14T22:44:33.284Z,99908.72
2023-02-14T22:47:01.149Z,99899.47
2023-02-14T22:49:27.562Z,99901.78
2023-02-14T22:51:53.989Z,99900.09
2023-02-14T22:54:20.428Z,99894.38
2023-02-14T22:56:48.531Z,99900.81
2023-02-14T22:59:19.496Z,99899.81
2023-02-14T23:01:47.204Z,99907.88
2023-02-14T23:04:16.448Z,99904.09
2023-02-14T23:06:43.057Z,99907.41
2023-02-14T23:09:11.524Z,99909.44
2023-02-14T23:11:39.762Z,99907.91
2023-02-14T23:14:25.920Z,99905.13
2023-02-14T23:17:10.644Z,99909.63
2023-02-14T23:19:56.582Z,99904.06
2023-02-14T23:22:26.860Z,99898.34
2023-02-14T23:24:56.398Z,99894.66
2023-02-14T23:27:27.299Z,99895.38
2023-02-14T23:29:53.795Z,99891.69
2023-02-14T23:32:20.312Z,99895.66
2023-02-14T23:34:46.761Z,99889.31
2023-02-14T23:37:14.149Z,99885.09
2023-02-14T23:39:41.357Z,99895.75
2023-02-14T23:42:10.819Z,99895.19
2023-02-14T23:44:37.749Z,99900.22
2023-02-14T23:47:07.170Z,99894.81
2023-02-14T23:49:35.886Z,99880.47
2023-02-14T23:52:03.997Z,99886.00
2023-02-14T23:54:30.490Z,99880.25
2023-02-14T23:56:57.586Z,99881.81
2023-02-14T23:59:24.593Z,99890.91
